createdAt,value
2018-11-03T00:01:07.568Z,6.92
2018-11-03T00:06:09.900Z,6.85
2018-11-03T00:11:12.236Z,6.89
2018-11-03T00:16:14.557Z,6.82
2018-11-03T00:21:16.991Z,6.89
2018-11-03T00:26:19.290Z,6.97
2018-11-03T00:31:21.654Z,6.96
2018-11-03T00:36:23.956Z,6.90
2018-11-03T00:41:26.232Z,6.95
2018-11-03T00:46:28.657Z,6.96
2018-11-03T00:51:31.052Z,7.02
2018-11-03T00:56:33.428Z,7.02
2018-11-03T01:01:35.774Z,6.99
2018-11-03T01:06:38.071Z,6.91
2018-11-03T01:11:40.367Z,6.78
2018-11-03T01:16:42.675Z,6.78
2018-11-03T01:21:45.100Z,6.75
2018-11-03T01:26:47.379Z,6.67
2018-11-03T01:31:49.747Z,6.48
2018-11-03T01:36:52.064Z,6.48
2018-11-03T01:41:54.355Z,6.48
2018-11-03T01:46:56.704Z,6.59
2018-11-03T01:51:59.076Z,6.67
2018-11-03T01:57:01.324Z,6.68
2018-11-03T02:02:03.803Z,6.62
2018-11-03T02:07:06.369Z,6.65
2018-11-03T02:12:08.688Z,6.68
2018-11-03T02:17:10.996Z,6.69
2018-11-03T02:22:13.356Z,6.73
2018-11-03T02:27:15.692Z,6.74
2018-11-03T02:32:18.060Z,6.73
2018-11-03T02:37:20.359Z,6.75
2018-11-03T02:42:22.681Z,6.70
2018-11-03T02:47:25.061Z,6.73
2018-11-03T02:52:27.532Z,6.70
2018-11-03T02:57:29.884Z,6.70
2018-11-03T03:02:32.243Z,6.71
2018-11-03T03:07:34.563Z,6.70
2018-11-03T03:12:37.313Z,6.71
2018-11-03T03:17:40.015Z,6.71
2018-11-03T03:22:42.400Z,6.63
2018-11-03T03:27:44.744Z,6.54
2018-11-03T03:32:47.320Z,6.56
2018-11-03T03:37:49.784Z,6.57
2018-11-03T03:42:52.084Z,6.52
2018-11-03T03:47:54.383Z,6.54
2018-11-03T03:52:56.675Z,6.54
2018-11-03T03:57:58.980Z,6.56
2018-11-03T04:03:01.351Z,6.51
2018-11-03T04:08:03.671Z,6.49
2018-11-03T04:13:05.977Z,6.49
2018-11-03T04:18:09.063Z,6.55
2018-11-03T04:23:11.343Z,6.48
2018-11-03T04:28:13.628Z,6.45
2018-11-03T04:33:16.108Z,6.54
2018-11-03T04:38:18.385Z,6.51
2018-11-03T04:43:20.720Z,6.42
2018-11-03T04:48:23.033Z,6.41
2018-11-03T04:53:25.336Z,6.33
2018-11-03T04:58:27.617Z,6.36
2018-11-03T05:03:29.946Z,6.39
2018-11-03T05:08:32.219Z,6.40
2018-11-03T05:13:34.849Z,6.41
2018-11-03T05:18:37.234Z,6.38
2018-11-03T05:23:39.507Z,6.41
2018-11-03T05:28:41.836Z,6.44
2018-11-03T05:33:44.246Z,6.43
2018-11-03T05:38:46.603Z,6.45
2018-11-03T05:43:49.071Z,6.43
2018-11-03T05:48:52.820Z,6.47
2018-11-03T05:53:55.446Z,6.49
2018-11-03T05:58:57.896Z,6.51
2018-11-03T06:04:00.531Z,6.51
2018-11-03T06:09:04.087Z,6.53
2018-11-03T06:14:06.784Z,6.53
2018-11-03T06:19:09.076Z,6.54
2018-11-03T06:24:11.344Z,6.52
2018-11-03T06:29:13.624Z,6.55
2018-11-03T06:34:15.988Z,6.51
2018-11-03T06:39:18.362Z,6.52
2018-11-03T06:44:20.656Z,6.52
2018-11-03T06:49:23.851Z,6.57
2018-11-03T06:54:26.258Z,6.59
2018-11-03T06:59:28.574Z,6.66
2018-11-03T07:04:30.996Z,6.72
2018-11-03T07:09:33.403Z,6.76
2018-11-03T07:14:35.704Z,6.82
2018-11-03T07:19:38.102Z,6.88
2018-11-03T07:24:40.418Z,6.94
2018-11-03T07:29:42.817Z,7.03
2018-11-03T07:34:45.214Z,7.10
2018-11-03T07:39:47.513Z,7.10
2018-11-03T07:44:49.928Z,7.13
2018-11-03T07:49:52.321Z,7.13
2018-11-03T07:54:54.686Z,7.17
2018-11-03T07:59:56.967Z,7.29
2018-11-03T08:04:59.338Z,7.47
2018-11-03T08:10:01.627Z,7.50
2018-11-03T08:15:04.729Z,7.65
2018-11-03T08:20:08.474Z,7.75
2018-11-03T08:25:10.819Z,7.88
2018-11-03T08:30:13.863Z,7.81
2018-11-03T08:35:16.321Z,7.94
2018-11-03T08:40:18.630Z,7.96
2018-11-03T08:45:20.910Z,8.04
2018-11-03T08:50:23.198Z,8.07
2018-11-03T08:55:25.497Z,8.11
2018-11-03T09:00:27.861Z,8.11
2018-11-03T09:05:30.171Z,8.22
2018-11-03T09:10:32.454Z,8.04
2018-11-03T09:15:34.730Z,8.02
2018-11-03T09:20:37.026Z,8.09
2018-11-03T09:25:39.322Z,8.21
2018-11-03T09:30:41.685Z,8.36
2018-11-03T09:35:44.067Z,8.37
2018-11-03T09:40:46.352Z,8.45
2018-11-03T09:45:48.642Z,8.51
2018-11-03T09:50:50.952Z,8.50
2018-11-03T09:55:53.248Z,8.55
2018-11-03T10:00:55.536Z,8.64
2018-11-03T10:05:57.889Z,8.63
2018-11-03T10:11:00.180Z,8.72
2018-11-03T10:16:02.569Z,8.83
2018-11-03T10:21:05.186Z,8.74
2018-11-03T10:26:07.490Z,8.96
2018-11-03T10:31:09.800Z,8.96
2018-11-03T10:36:12.186Z,8.82
2018-11-03T10:41:14.474Z,9.02
2018-11-03T10:46:16.865Z,9.08
2018-11-03T10:51:19.137Z,9.05
2018-11-03T10:56:21.486Z,8.92
2018-11-03T11:01:29.386Z,9.02
2018-11-03T11:06:37.471Z,8.90
2018-11-03T11:11:45.834Z,8.93
2018-11-03T11:16:48.192Z,9.06
2018-11-03T11:21:50.446Z,9.07
2018-11-03T11:26:52.742Z,9.16
2018-11-03T11:31:55.075Z,9.21
2018-11-03T11:36:57.434Z,9.23
2018-11-03T11:41:59.778Z,9.23
2018-11-03T11:47:02.078Z,9.23
2018-11-03T11:52:04.451Z,9.30
2018-11-03T11:57:06.739Z,9.23
2018-11-03T12:02:09.259Z,9.34
2018-11-03T12:07:11.673Z,9.42
2018-11-03T12:12:13.977Z,9.42
2018-11-03T12:17:16.259Z,9.46
2018-11-03T12:22:18.601Z,9.37
2018-11-03T12:27:20.883Z,9.37
2018-11-03T12:32:23.260Z,9.34
2018-11-03T12:37:25.673Z,9.40
2018-11-03T12:42:28.310Z,9.48
2018-11-03T12:47:30.606Z,9.46
2018-11-03T12:52:32.922Z,9.49
2018-11-03T12:57:35.245Z,9.50
2018-11-03T13:02:38.004Z,9.53
2018-11-03T13:07:41.731Z,9.56
2018-11-03T13:12:44.954Z,9.56
2018-11-03T13:17:47.250Z,9.65
2018-11-03T13:22:49.611Z,9.65
2018-11-03T13:27:51.836Z,9.61
2018-11-03T13:32:54.155Z,9.59
2018-11-03T13:37:56.519Z,9.63
2018-11-03T13:42:58.882Z,9.75
2018-11-03T13:48:01.211Z,9.74
2018-11-03T13:53:03.534Z,9.66
2018-11-03T13:58:06.119Z,9.62
2018-11-03T14:03:08.422Z,9.56
2018-11-03T14:08:10.770Z,9.52
2018-11-03T14:18:27.962Z,9.46
2018-11-03T14:23:30.294Z,9.41
2018-11-03T14:28:32.570Z,9.37
2018-11-03T14:33:34.867Z,9.30
2018-11-03T14:38:37.204Z,9.29
2018-11-03T14:43:39.476Z,9.23
2018-11-03T14:48:41.931Z,9.21
2018-11-03T14:53:44.275Z,9.21
2018-11-03T14:58:46.569Z,9.12
2018-11-03T15:03:48.848Z,9.09
2018-11-03T15:08:51.194Z,8.99
2018-11-03T15:13:53.582Z,8.98
2018-11-03T15:18:55.798Z,8.90
2018-11-03T15:23:58.102Z,8.82
2018-11-03T15:29:00.398Z,8.73
2018-11-03T15:34:02.727Z,8.62
2018-11-03T15:39:05.771Z,8.53
2018-11-03T15:44:08.047Z,8.47
2018-11-03T15:49:10.377Z,8.44
2018-11-03T15:54:12.674Z,8.36
2018-11-03T15:59:14.974Z,8.29
2018-11-03T16:04:17.254Z,8.21
2018-11-03T16:09:19.585Z,8.16
2018-11-03T16:14:21.870Z,8.10
2018-11-03T16:19:24.312Z,8.06
2018-11-03T16:24:26.585Z,8.01
2018-11-03T16:29:28.873Z,7.98
2018-11-03T16:34:31.155Z,7.95
2018-11-03T16:39:33.452Z,7.94
2018-11-03T16:44:35.722Z,7.92
2018-11-03T16:49:38.005Z,7.93
2018-11-03T16:54:40.259Z,7.90
2018-11-03T16:59:42.640Z,7.85
2018-11-03T17:04:44.897Z,7.84
2018-11-03T17:09:47.205Z,7.81
2018-11-03T17:14:49.485Z,7.78
2018-11-03T17:19:51.784Z,7.75
2018-11-03T17:24:54.228Z,7.74
2018-11-03T17:29:56.520Z,7.75
2018-11-03T17:34:58.843Z,7.78
2018-11-03T17:40:01.176Z,7.79
2018-11-03T17:45:03.805Z,7.81
2018-11-03T17:50:07.602Z,7.81
2018-11-03T17:55:10.283Z,7.83
2018-11-03T18:00:16.267Z,7.83
2018-11-03T18:05:18.559Z,7.83
2018-11-03T18:10:20.895Z,7.84
2018-11-03T18:15:23.196Z,7.84
2018-11-03T18:20:25.463Z,7.87
2018-11-03T18:25:27.748Z,7.87
2018-11-03T18:30:30.027Z,7.92
2018-11-03T18:35:32.342Z,7.93
2018-11-03T18:40:34.650Z,7.94
2018-11-03T18:45:36.907Z,7.95
2018-11-03T18:50:39.159Z,7.95
2018-11-03T18:55:41.407Z,7.96
2018-11-03T19:00:43.679Z,7.96
2018-11-03T19:05:46.054Z,7.97
2018-11-03T19:10:48.374Z,7.98
2018-11-03T19:15:50.734Z,7.98
2018-11-03T19:20:53.010Z,7.98
2018-11-03T19:25:55.277Z,7.98
2018-11-03T19:30:57.605Z,8.00
2018-11-03T19:35:59.903Z,8.02
2018-11-03T19:41:02.255Z,8.02
2018-11-03T19:46:04.952Z,8.03
2018-11-03T19:51:07.246Z,8.05
2018-11-03T19:56:09.538Z,8.06
2018-11-03T20:01:11.848Z,8.07
2018-11-03T20:06:14.127Z,8.07
2018-11-03T20:11:16.463Z,8.07
2018-11-03T20:16:18.741Z,8.07
2018-11-03T20:21:21.011Z,8.08
2018-11-03T20:26:23.407Z,8.06
2018-11-03T20:31:25.641Z,8.06
2018-11-03T20:36:27.928Z,8.05
2018-11-03T20:41:30.323Z,8.04
2018-11-03T20:46:32.615Z,8.03
2018-11-03T20:51:34.915Z,8.05
2018-11-03T20:56:37.229Z,8.04
2018-11-03T21:01:39.572Z,8.03
2018-11-03T21:06:41.931Z,8.03
2018-11-03T21:11:44.337Z,8.02
2018-11-03T21:16:47.223Z,8.03
2018-11-03T21:21:49.555Z,8.03
2018-11-03T21:26:51.873Z,8.04
2018-11-03T21:31:54.227Z,8.04
2018-11-03T21:36:56.491Z,8.05
2018-11-03T21:42:00.643Z,8.08
2018-11-03T21:47:03.062Z,8.08
2018-11-03T21:52:06.006Z,8.10
2018-11-03T21:57:08.316Z,8.11
2018-11-03T22:02:10.602Z,8.12
2018-11-03T22:07:12.904Z,8.13
2018-11-03T22:12:15.255Z,8.14
2018-11-03T22:17:18.083Z,8.15
2018-11-03T22:22:20.383Z,8.15
2018-11-03T22:27:22.693Z,8.15
2018-11-03T22:32:25.886Z,8.14
2018-11-03T22:37:28.402Z,8.14
2018-11-03T22:42:30.759Z,8.12
2018-11-03T22:47:33.179Z,8.14
2018-11-03T22:52:35.568Z,8.13
2018-11-03T22:57:38.435Z,8.14
2018-11-03T23:02:41.447Z,8.15
2018-11-03T23:07:43.794Z,8.14
2018-11-03T23:12:46.227Z,8.15
2018-11-03T23:17:48.628Z,8.17
2018-11-03T23:22:51.105Z,8.18
2018-11-03T23:27:53.955Z,8.18
2018-11-03T23:32:56.403Z,8.21
2018-11-03T23:37:58.773Z,8.21
2018-11-03T23:43:01.214Z,8.22
2018-11-03T23:48:03.958Z,8.24
2018-11-03T23:53:06.290Z,8.24
2018-11-03T23:58:08.596Z,8.26
